Time;durP1;ratioP1;P1;durP2;ratioP2;P2;SDS_P1;SDS_P2;PMS_P1;PMS_P2;Temp;Humidity;BMP_temperature;BMP_pressure;BME280_temperature;BME280_humidity;BME280_pressure;Samples;Min_cycle;Max_cycle;Signal;HPM_P1;HPM_P2
2023/03/28 00:01:49;;;;;;;3.50;1.50;;;;;;;;;;5073754;28;20060;-76
2023/03/28 00:04:16;;;;;;;1.63;1.30;;;;;;;;;;5072262;28;20028;-76
2023/03/28 00:06:44;;;;;;;1.55;1.10;;;;;;;;;;5072156;28;20021;-77
2023/03/28 00:09:10;;;;;;;1.30;1.00;;;;;;;;;;5072149;28;20044;-76
2023/03/28 00:11:35;;;;;;;1.98;1.10;;;;;;;;;;5072494;28;20404;-76
2023/03/28 00:14:01;;;;;;;1.83;1.10;;;;;;;;;;5055485;28;20098;-76
2023/03/28 00:16:32;;;;;;;1.98;1.00;;;;;;;;;;5055389;28;20102;-76
2023/03/28 00:18:59;;;;;;;2.13;1.08;;;;;;;;;;5071959;28;20494;-76
2023/03/28 00:21:34;;;;;;;1.42;1.10;;;;;;;;;;5072198;28;20491;-76
2023/03/28 00:24:01;;;;;;;2.33;1.23;;;;;;;;;;5072247;28;20104;-77
2023/03/28 00:26:29;;;;;;;2.10;1.20;;;;;;;;;;5071921;28;20020;-76
2023/03/28 00:28:55;;;;;;;2.22;1.20;;;;;;;;;;5072180;28;20028;-76
2023/03/28 00:31:22;;;;;;;2.47;1.40;;;;;;;;;;5072032;28;20047;-76
2023/03/28 00:33:48;;;;;;;1.73;0.88;;;;;;;;;;5073362;28;20424;-77
2023/03/28 00:36:17;;;;;;;2.17;1.10;;;;;;;;;;5071786;28;20115;-77
2023/03/28 00:38:44;;;;;;;1.70;1.10;;;;;;;;;;5055438;28;20471;-76
2023/03/28 00:41:09;;;;;;;1.83;1.27;;;;;;;;;;5071580;28;20049;-76
2023/03/28 00:43:37;;;;;;;2.70;1.30;;;;;;;;;;5071783;28;20029;-76
2023/03/28 00:46:06;;;;;;;2.78;1.33;;;;;;;;;;5071642;28;20035;-76
2023/03/28 00:48:31;;;;;;;2.20;1.40;;;;;;;;;;5072013;28;20036;-76
2023/03/28 00:51:02;;;;;;;1.50;1.00;;;;;;;;;;5071923;28;20032;-76
2023/03/28 00:53:28;;;;;;;2.67;1.00;;;;;;;;;;5072931;28;20037;-77
2023/03/28 00:56:01;;;;;;;1.70;1.17;;;;;;;;;;5071628;28;20052;-77
2023/03/28 00:58:31;;;;;;;1.90;1.08;;;;;;;;;;5071898;28;20032;-76
2023/03/28 01:00:56;;;;;;;2.85;1.00;;;;;;;;;;5071853;28;20170;-76
2023/03/28 01:03:26;;;;;;;2.25;1.30;;;;;;;;;;5073592;28;20106;-77
2023/03/28 01:05:52;;;;;;;1.90;1.08;;;;;;;;;;5075976;28;20032;-77
2023/03/28 01:08:23;;;;;;;3.05;1.30;;;;;;;;;;5059156;28;20028;-76
2023/03/28 01:10:48;;;;;;;2.80;1.10;;;;;;;;;;5058767;28;20032;-76
2023/03/28 01:13:16;;;;;;;2.13;1.35;;;;;;;;;;5076777;28;20040;-76
2023/03/28 01:15:43;;;;;;;2.67;1.10;;;;;;;;;;5075478;28;20059;-76
2023/03/28 01:18:10;;;;;;;1.38;1.02;;;;;;;;;;5076525;28;20557;-76
2023/03/28 01:21:00;;;;;;;1.75;1.38;;;;;;;;;;5075475;28;20047;-76
2023/03/28 01:24:07;;;;;;;2.28;1.02;;;;;;;;;;5076444;28;20538;-76
2023/03/28 01:26:51;;;;;;;3.53;1.50;;;;;;;;;;5075989;28;20483;-75
2023/03/28 01:29:34;;;;;;;1.87;1.20;;;;;;;;;;5076832;28;20554;-75
2023/03/28 01:32:29;;;;;;;3.17;1.17;;;;;;;;;;5076683;28;20044;-76
2023/03/28 01:35:03;;;;;;;2.53;0.88;;;;;;;;;;5045078;28;20029;-75
2023/03/28 01:37:37;;;;;;;1.65;1.08;;;;;;;;;;5076311;28;20468;-76
2023/03/28 01:40:37;;;;;;;1.42;1.10;;;;;;;;;;5074910;28;20070;-76
2023/03/28 01:43:08;;;;;;;1.65;1.10;;;;;;;;;;5074931;28;20049;-76
2023/03/28 01:45:58;;;;;;;1.70;0.88;;;;;;;;;;5075040;28;20111;-76
2023/03/28 01:48:49;;;;;;;1.83;1.10;;;;;;;;;;5074763;28;20452;-75
2023/03/28 01:51:32;;;;;;;2.08;1.10;;;;;;;;;;5074681;28;20031;-76
2023/03/28 01:54:12;;;;;;;1.73;1.08;;;;;;;;;;5075971;28;20028;-76
2023/03/28 01:56:40;;;;;;;1.98;1.35;;;;;;;;;;5074780;28;20029;-76
2023/03/28 01:59:17;;;;;;;1.73;1.00;;;;;;;;;;5074497;28;20024;-76
2023/03/28 02:02:15;;;;;;;2.67;1.33;;;;;;;;;;5076056;28;20029;-76
2023/03/28 02:04:44;;;;;;;1.77;0.90;;;;;;;;;;5006389;28;20094;-76
2023/03/28 02:07:10;;;;;;;1.13;0.90;;;;;;;;;;5074566;28;20028;-76
2023/03/28 02:09:37;;;;;;;2.45;1.15;;;;;;;;;;5075603;28;20054;-76
2023/03/28 02:12:07;;;;;;;1.45;1.10;;;;;;;;;;5076216;28;20467;-76
2023/03/28 02:14:37;;;;;;;2.63;1.20;;;;;;;;;;5073991;28;20055;-76
2023/03/28 02:17:08;;;;;;;3.30;1.20;;;;;;;;;;5057687;28;20032;-76
2023/03/28 02:19:36;;;;;;;3.22;0.93;;;;;;;;;;5074292;28;20031;-76
2023/03/28 02:22:16;;;;;;;2.25;1.08;;;;;;;;;;5074441;28;20425;-76
2023/03/28 02:24:42;;;;;;;1.75;1.10;;;;;;;;;;5074232;28;20020;-76
2023/03/28 02:27:07;;;;;;;1.42;1.02;;;;;;;;;;5074214;28;20036;-76
2023/03/28 02:29:35;;;;;;;3.03;1.23;;;;;;;;;;5057747;28;20024;-76
2023/03/28 02:32:00;;;;;;;1.35;1.00;;;;;;;;;;5057199;28;20064;-76
2023/03/28 02:34:25;;;;;;;2.05;1.10;;;;;;;;;;5074263;28;20040;-76
2023/03/28 02:37:18;;;;;;;3.70;1.20;;;;;;;;;;5073890;28;20154;-77
2023/03/28 02:40:02;;;;;;;3.13;1.17;;;;;;;;;;5057115;28;20609;-76
2023/03/28 02:42:44;;;;;;;2.00;1.00;;;;;;;;;;5074805;28;20048;-76
2023/03/28 02:45:26;;;;;;;1.67;1.10;;;;;;;;;;5073801;28;20082;-76
2023/03/28 02:48:17;;;;;;;2.55;0.85;;;;;;;;;;5073898;28;20028;-76
2023/03/28 02:51:11;;;;;;;1.25;1.00;;;;;;;;;;5075287;28;20104;-76
2023/03/28 02:53:56;;;;;;;1.97;0.90;;;;;;;;;;5073721;28;20020;-76
2023/03/28 02:56:35;;;;;;;1.65;0.85;;;;;;;;;;5056874;28;20048;-76
2023/03/28 02:59:07;;;;;;;2.35;1.10;;;;;;;;;;5073609;28;20024;-76
2023/03/28 03:01:35;;;;;;;1.38;0.98;;;;;;;;;;5073415;28;20032;-76
2023/03/28 03:04:01;;;;;;;2.08;0.98;;;;;;;;;;5073556;28;20025;-75
2023/03/28 03:06:26;;;;;;;2.20;1.10;;;;;;;;;;5073341;28;20097;-75
2023/03/28 03:08:51;;;;;;;3.10;1.35;;;;;;;;;;5074409;28;20050;-76
2023/03/28 03:11:17;;;;;;;2.88;1.10;;;;;;;;;;5056657;28;20036;-76
2023/03/28 03:13:42;;;;;;;1.10;1.00;;;;;;;;;;5073482;28;20464;-76
2023/03/28 03:16:08;;;;;;;1.38;1.00;;;;;;;;;;5056524;28;20024;-75
2023/03/28 03:18:34;;;;;;;2.83;1.20;;;;;;;;;;5073077;28;20056;-75
2023/03/28 03:21:00;;;;;;;1.50;0.82;;;;;;;;;;5072947;28;20044;-75
2023/03/28 03:23:26;;;;;;;4.40;1.10;;;;;;;;;;5073640;28;20387;-76
2023/03/28 03:25:51;;;;;;;1.98;1.00;;;;;;;;;;5073498;28;20112;-76
2023/03/28 03:28:17;;;;;;;1.55;1.00;;;;;;;;;;5073170;28;20162;-75
2023/03/28 03:30:43;;;;;;;4.05;1.35;;;;;;;;;;5074551;28;20119;-76
2023/03/28 03:33:09;;;;;;;2.05;0.95;;;;;;;;;;5073119;28;20475;-75
2023/03/28 03:35:35;;;;;;;1.10;0.80;;;;;;;;;;5074399;28;20029;-76
2023/03/28 03:38:01;;;;;;;0.90;0.90;;;;;;;;;;5053560;28;20123;-76
2023/03/28 03:40:26;;;;;;;1.98;0.90;;;;;;;;;;5072669;28;20203;-76
2023/03/28 03:42:52;;;;;;;1.98;1.00;;;;;;;;;;5073355;28;20076;-76
2023/03/28 03:45:17;;;;;;;1.00;0.75;;;;;;;;;;5073562;28;20391;-77
2023/03/28 03:47:42;;;;;;;1.70;1.10;;;;;;;;;;5072454;28;20522;-76
2023/03/28 03:50:08;;;;;;;0.95;0.90;;;;;;;;;;5072905;28;20039;-76
2023/03/28 03:52:34;;;;;;;0.77;0.77;;;;;;;;;;5056194;28;20032;-76
2023/03/28 03:55:00;;;;;;;1.67;0.95;;;;;;;;;;5072247;28;20425;-76
2023/03/28 03:57:25;;;;;;;1.27;0.90;;;;;;;;;;5055573;28;20032;-76
2023/03/28 03:59:51;;;;;;;2.42;1.17;;;;;;;;;;5072545;28;20024;-77
2023/03/28 04:02:16;;;;;;;1.42;0.90;;;;;;;;;;5072242;28;20028;-77
2023/03/28 04:04:44;;;;;;;2.55;1.20;;;;;;;;;;5072498;28;20403;-77
2023/03/28 04:07:10;;;;;;;1.63;1.10;;;;;;;;;;5056118;28;20021;-76
2023/03/28 04:09:36;;;;;;;1.73;0.80;;;;;;;;;;5072826;28;20028;-76
2023/03/28 04:12:01;;;;;;;2.42;0.80;;;;;;;;;;5072701;28;20033;-77
2023/03/28 04:14:26;;;;;;;2.08;1.00;;;;;;;;;;5073893;28;20082;-76
2023/03/28 04:16:52;;;;;;;1.73;1.10;;;;;;;;;;5072385;28;20420;-77
2023/03/28 04:19:18;;;;;;;2.97;1.48;;;;;;;;;;5072346;28;20035;-76
2023/03/28 04:21:46;;;;;;;2.42;1.20;;;;;;;;;;5055508;28;20048;-76
2023/03/28 04:24:14;;;;;;;5.03;1.40;;;;;;;;;;5072160;28;20036;-77
2023/03/28 04:26:39;;;;;;;4.32;1.23;;;;;;;;;;5072304;28;20052;-78
2023/03/28 04:29:05;;;;;;;4.22;1.48;;;;;;;;;;5073493;28;20457;-77
2023/03/28 04:31:34;;;;;;;3.63;1.50;;;;;;;;;;5072391;28;20024;-77
2023/03/28 04:34:02;;;;;;;5.80;2.25;;;;;;;;;;5072162;28;20032;-78
2023/03/28 04:36:28;;;;;;;11.57;2.13;;;;;;;;;;5072008;28;20111;-78
2023/03/28 04:38:57;;;;;;;5.95;2.58;;;;;;;;;;5072255;28;20040;-78
2023/03/28 04:41:22;;;;;;;10.77;2.60;;;;;;;;;;5073283;28;20053;-78
2023/03/28 04:43:48;;;;;;;6.13;2.10;;;;;;;;;;5073235;28;20116;-78
2023/03/28 04:46:13;;;;;;;18.75;2.45;;;;;;;;;;5073768;28;20050;-77
2023/03/28 04:48:38;;;;;;;4.20;2.20;;;;;;;;;;5055188;28;20052;-77
2023/03/28 04:51:04;;;;;;;6.05;2.22;;;;;;;;;;5073549;28;20025;-78
2023/03/28 04:53:30;;;;;;;3.63;2.33;;;;;;;;;;5073468;28;20117;-79
2023/03/28 04:55:55;;;;;;;10.98;2.60;;;;;;;;;;5073335;28;20039;-79
2023/03/28 04:58:22;;;;;;;11.23;2.92;;;;;;;;;;5073559;28;20037;-80
2023/03/28 05:00:48;;;;;;;10.18;3.25;;;;;;;;;;5055201;28;20078;-79
2023/03/28 05:03:21;;;;;;;7.82;2.67;;;;;;;;;;5071805;28;20427;-79
2023/03/28 05:05:47;;;;;;;10.23;2.63;;;;;;;;;;5072040;28;20024;-79
2023/03/28 05:08:15;;;;;;;9.65;2.70;;;;;;;;;;5055168;28;20029;-79
2023/03/28 05:10:41;;;;;;;10.05;3.08;;;;;;;;;;5072243;28;20111;-80
2023/03/28 05:13:06;;;;;;;14.18;2.95;;;;;;;;;;5071618;28;20112;-78
2023/03/28 05:15:32;;;;;;;8.15;3.17;;;;;;;;;;5071657;28;20064;-79
2023/03/28 05:17:58;;;;;;;7.88;2.70;;;;;;;;;;5055034;28;20033;-79
2023/03/28 05:20:24;;;;;;;12.35;3.25;;;;;;;;;;5054998;28;20032;-79
2023/03/28 05:22:50;;;;;;;9.20;2.90;;;;;;;;;;5071537;28;20104;-79
2023/03/28 05:25:16;;;;;;;10.18;3.08;;;;;;;;;;5072727;28;20083;-79
2023/03/28 05:27:41;;;;;;;8.52;2.97;;;;;;;;;;5054897;28;20033;-79
2023/03/28 05:30:08;;;;;;;9.82;2.58;;;;;;;;;;5071860;28;20035;-79
2023/03/28 05:32:34;;;;;;;9.70;2.85;;;;;;;;;;5071460;28;20162;-79
2023/03/28 05:35:00;;;;;;;8.93;2.83;;;;;;;;;;5055085;28;20429;-80
2023/03/28 05:37:25;;;;;;;5.55;2.38;;;;;;;;;;5071556;28;20028;-79
2023/03/28 05:39:51;;;;;;;7.50;2.70;;;;;;;;;;5071818;28;20078;-79
2023/03/28 05:42:16;;;;;;;8.98;2.72;;;;;;;;;;5071055;28;20080;-80
2023/03/28 05:44:42;;;;;;;5.78;2.00;;;;;;;;;;5071319;28;20040;-79
2023/03/28 05:47:07;;;;;;;7.55;2.38;;;;;;;;;;5038039;28;20021;-80
2023/03/28 05:49:33;;;;;;;6.72;2.25;;;;;;;;;;5073921;28;20131;-79
2023/03/28 05:51:58;;;;;;;4.30;1.95;;;;;;;;;;5076620;28;20029;-79
2023/03/28 05:54:24;;;;;;;6.55;2.13;;;;;;;;;;5075261;28;20040;-80
2023/03/28 05:56:49;;;;;;;5.18;2.30;;;;;;;;;;5075987;28;20039;-79
2023/03/28 05:59:17;;;;;;;7.45;2.50;;;;;;;;;;5058153;28;20036;-79
2023/03/28 06:01:45;;;;;;;6.72;2.10;;;;;;;;;;5058481;28;20107;-79
2023/03/28 06:04:11;;;;;;;7.65;2.10;;;;;;;;;;5074866;28;20498;-79
2023/03/28 06:06:36;;;;;;;6.43;2.42;;;;;;;;;;5074792;28;20028;-79
2023/03/28 06:09:02;;;;;;;3.47;1.80;;;;;;;;;;5058101;28;20036;-79
2023/03/28 06:11:28;;;;;;;2.90;1.60;;;;;;;;;;5074546;28;20033;-79
2023/03/28 06:13:53;;;;;;;6.35;1.88;;;;;;;;;;5076330;28;20035;-79
2023/03/28 06:16:19;;;;;;;4.65;1.90;;;;;;;;;;5075728;28;20025;-79
2023/03/28 06:18:44;;;;;;;4.07;2.05;;;;;;;;;;5075701;28;20082;-79
2023/03/28 06:21:09;;;;;;;3.53;1.83;;;;;;;;;;5074439;28;20443;-79
2023/03/28 06:23:35;;;;;;;7.72;2.30;;;;;;;;;;5075825;28;20031;-79
2023/03/28 06:26:01;;;;;;;4.78;1.80;;;;;;;;;;5040905;28;20028;-79
2023/03/28 06:28:26;;;;;;;3.25;1.85;;;;;;;;;;5075670;28;20063;-79
2023/03/28 06:30:52;;;;;;;4.57;1.85;;;;;;;;;;5075707;28;20032;-79
2023/03/28 06:33:17;;;;;;;5.00;1.60;;;;;;;;;;5074148;28;20451;-79
2023/03/28 06:35:42;;;;;;;5.53;2.10;;;;;;;;;;5075442;28;20090;-79
2023/03/28 06:38:08;;;;;;;3.75;1.70;;;;;;;;;;5075620;28;20031;-78
2023/03/28 06:40:33;;;;;;;4.03;1.67;;;;;;;;;;5074144;28;20041;-78
2023/03/28 06:42:58;;;;;;;9.05;1.83;;;;;;;;;;5075615;28;20057;-79
2023/03/28 06:45:24;;;;;;;5.32;2.17;;;;;;;;;;5074897;28;20020;-79
2023/03/28 06:47:50;;;;;;;4.72;1.80;;;;;;;;;;5073817;28;20024;-79
2023/03/28 06:50:16;;;;;;;4.95;1.73;;;;;;;;;;5074183;28;20351;-79
2023/03/28 06:52:41;;;;;;;4.10;1.95;;;;;;;;;;5074145;28;20043;-79
2023/03/28 06:55:07;;;;;;;6.32;1.75;;;;;;;;;;5075634;28;20032;-79
2023/03/28 06:57:32;;;;;;;4.22;1.60;;;;;;;;;;5075033;28;20382;-79
2023/03/28 06:59:58;;;;;;;4.68;1.83;;;;;;;;;;5057270;28;20094;-79
2023/03/28 07:02:23;;;;;;;4.15;1.60;;;;;;;;;;5073570;28;20111;-79
2023/03/28 07:04:49;;;;;;;3.72;1.83;;;;;;;;;;5073804;28;20025;-79
2023/03/28 07:07:14;;;;;;;2.10;1.55;;;;;;;;;;5073748;28;20054;-79
2023/03/28 07:09:39;;;;;;;3.63;1.52;;;;;;;;;;5074688;28;20062;-77
2023/03/28 07:12:05;;;;;;;3.45;1.90;;;;;;;;;;5073410;28;20037;-77
2023/03/28 07:14:31;;;;;;;4.25;2.00;;;;;;;;;;5073870;28;20035;-77
2023/03/28 07:16:56;;;;;;;3.25;1.80;;;;;;;;;;5074840;28;20388;-78
2023/03/28 07:19:22;;;;;;;2.20;1.60;;;;;;;;;;5073297;28;20120;-78
2023/03/28 07:21:47;;;;;;;2.63;1.40;;;;;;;;;;5074022;28;20029;-78
2023/03/28 07:24:13;;;;;;;3.17;1.70;;;;;;;;;;5074540;28;20036;-77
2023/03/28 07:26:39;;;;;;;3.13;1.42;;;;;;;;;;5073567;28;20020;-78
2023/03/28 07:29:04;;;;;;;2.38;1.58;;;;;;;;;;5074428;28;20036;-78
2023/03/28 07:31:30;;;;;;;3.50;1.58;;;;;;;;;;5074528;28;20106;-78
2023/03/28 07:33:56;;;;;;;4.85;1.75;;;;;;;;;;5073353;28;20062;-79
2023/03/28 07:36:23;;;;;;;2.40;1.40;;;;;;;;;;5056764;28;20495;-79
2023/03/28 07:38:51;;;;;;;5.00;1.90;;;;;;;;;;5056408;28;20052;-79
2023/03/28 07:41:17;;;;;;;2.60;1.48;;;;;;;;;;5072960;28;20045;-79
2023/03/28 07:43:43;;;;;;;4.90;1.65;;;;;;;;;;5072979;28;20364;-79
2023/03/28 07:46:12;;;;;;;3.28;1.17;;;;;;;;;;5074206;28;20046;-79
2023/03/28 07:48:39;;;;;;;3.35;1.70;;;;;;;;;;5072570;28;20475;-79
2023/03/28 07:51:06;;;;;;;3.17;1.52;;;;;;;;;;5073001;28;20024;-79
2023/03/28 07:53:32;;;;;;;2.17;1.33;;;;;;;;;;5072496;28;20036;-80
2023/03/28 07:55:58;;;;;;;3.08;1.42;;;;;;;;;;5056131;28;20089;-79
2023/03/28 07:58:23;;;;;;;2.33;1.27;;;;;;;;;;5072591;28;20104;-79
2023/03/28 08:00:49;;;;;;;4.50;1.60;;;;;;;;;;5072605;28;20056;-78
2023/03/28 08:03:15;;;;;;;6.32;1.85;;;;;;;;;;5074007;28;20016;-79
2023/03/28 08:05:42;;;;;;;6.00;1.60;;;;;;;;;;5072428;28;20056;-79
2023/03/28 08:08:08;;;;;;;2.40;1.33;;;;;;;;;;5055635;28;20097;-77
2023/03/28 08:10:33;;;;;;;9.90;1.60;;;;;;;;;;5055548;28;20896;-79
2023/03/28 08:12:59;;;;;;;2.92;1.35;;;;;;;;;;5071800;28;20039;-79
2023/03/28 08:15:24;;;;;;;2.90;1.50;;;;;;;;;;5055890;28;20025;-77
2023/03/28 08:17:50;;;;;;;5.45;1.27;;;;;;;;;;5072760;28;20120;-76
2023/03/28 08:20:16;;;;;;;3.38;1.52;;;;;;;;;;5072543;28;20028;-76
2023/03/28 08:22:41;;;;;;;3.75;1.63;;;;;;;;;;5055975;28;20107;-77
2023/03/28 08:25:08;;;;;;;4.38;1.88;;;;;;;;;;5071266;28;20113;-77
2023/03/28 08:27:34;;;;;;;2.90;1.42;;;;;;;;;;5073404;28;20514;-73
2023/03/28 08:30:00;;;;;;;4.18;1.80;;;;;;;;;;5048764;28;20041;-77
2023/03/28 08:32:25;;;;;;;2.45;1.33;;;;;;;;;;5073629;28;20039;-77
2023/03/28 08:34:51;;;;;;;5.00;1.52;;;;;;;;;;5073131;28;20475;-78
2023/03/28 08:37:17;;;;;;;8.25;1.60;;;;;;;;;;5073508;28;20033;-77
2023/03/28 08:39:43;;;;;;;2.10;1.27;;;;;;;;;;5072284;28;20070;-77
2023/03/28 08:42:27;;;;;;;3.45;1.48;;;;;;;;;;5073299;28;20048;-76
2023/03/28 08:45:21;;;;;;;4.90;1.40;;;;;;;;;;5056767;28;20047;-76
2023/03/28 08:48:13;;;;;;;2.75;1.30;;;;;;;;;;5055847;28;20021;-77
2023/03/28 08:50:42;;;;;;;3.88;1.33;;;;;;;;;;5056173;28;20036;-77
2023/03/28 08:53:42;;;;;;;5.05;1.40;;;;;;;;;;5072195;28;20025;-77
2023/03/28 08:56:08;;;;;;;9.07;1.90;;;;;;;;;;5063961;28;20054;-77
2023/03/28 08:58:49;;;;;;;3.33;1.70;;;;;;;;;;5055105;28;20032;-77
2023/03/28 09:01:15;;;;;;;3.63;1.60;;;;;;;;;;5071858;28;20031;-77
2023/03/28 09:03:40;;;;;;;4.25;1.50;;;;;;;;;;5071749;28;20490;-76
2023/03/28 09:06:22;;;;;;;5.07;1.85;;;;;;;;;;5071692;28;20063;-77
2023/03/28 09:08:51;;;;;;;5.22;1.40;;;;;;;;;;5054906;28;20043;-76
2023/03/28 09:11:37;;;;;;;3.22;1.20;;;;;;;;;;5054914;28;20040;-79
2023/03/28 09:14:39;;;;;;;3.75;1.73;;;;;;;;;;5065195;28;20044;-78
2023/03/28 09:17:23;;;;;;;4.03;1.35;;;;;;;;;;5072607;28;20017;-77
2023/03/28 09:20:10;;;;;;;2.17;1.33;;;;;;;;;;5071699;28;20035;-77
2023/03/28 09:22:54;;;;;;;9.00;2.13;;;;;;;;;;5073039;28;20025;-76
2023/03/28 09:25:41;;;;;;;4.47;1.38;;;;;;;;;;5081124;28;20028;-77
2023/03/28 09:28:29;;;;;;;1.75;1.20;;;;;;;;;;5078780;28;20056;-77
2023/03/28 09:30:55;;;;;;;3.28;1.42;;;;;;;;;;5095124;28;20038;-77
2023/03/28 09:33:27;;;;;;;1.73;1.00;;;;;;;;;;5095574;28;20386;-76
2023/03/28 09:35:56;;;;;;;2.58;1.10;;;;;;;;;;5090748;28;20029;-77
2023/03/28 09:38:29;;;;;;;4.93;2.00;;;;;;;;;;5075266;28;20024;-77
2023/03/28 09:40:57;;;;;;;2.53;1.45;;;;;;;;;;5074897;28;20062;-78
2023/03/28 09:43:29;;;;;;;2.30;1.20;;;;;;;;;;5075361;28;20475;-77
2023/03/28 09:46:06;;;;;;;3.33;1.08;;;;;;;;;;5075614;28;20513;-77
2023/03/28 09:48:35;;;;;;;5.70;1.23;;;;;;;;;;5075223;28;20100;-77
2023/03/28 09:51:03;;;;;;;2.97;1.10;;;;;;;;;;5076819;28;20037;-78
2023/03/28 09:53:31;;;;;;;1.90;1.00;;;;;;;;;;5058645;28;20020;-77
2023/03/28 09:56:00;;;;;;;2.45;1.15;;;;;;;;;;5076625;28;20387;-77
2023/03/28 09:58:25;;;;;;;2.55;1.23;;;;;;;;;;5075305;28;20410;-77
2023/03/28 10:00:52;;;;;;;2.92;1.10;;;;;;;;;;5076638;28;20039;-78
2023/03/28 10:03:28;;;;;;;2.13;1.10;;;;;;;;;;5058539;28;20070;-77
2023/03/28 10:05:54;;;;;;;3.15;1.40;;;;;;;;;;5075436;28;20075;-78
2023/03/28 10:08:34;;;;;;;1.98;1.42;;;;;;;;;;5075277;28;20024;-77
2023/03/28 10:11:00;;;;;;;2.42;0.95;;;;;;;;;;5075633;28;20033;-77
2023/03/28 10:13:27;;;;;;;2.17;1.30;;;;;;;;;;5074818;28;20055;-77
2023/03/28 10:15:55;;;;;;;4.30;1.35;;;;;;;;;;5074803;28;20032;-77
2023/03/28 10:18:25;;;;;;;2.33;1.20;;;;;;;;;;5075482;28;20390;-78
2023/03/28 10:20:51;;;;;;;2.10;1.10;;;;;;;;;;5075783;28;20031;-78
2023/03/28 10:23:16;;;;;;;2.47;1.05;;;;;;;;;;5074284;28;20025;-78
2023/03/28 10:25:44;;;;;;;2.10;1.10;;;;;;;;;;5073734;28;20379;-78
2023/03/28 10:28:35;;;;;;;1.70;1.20;;;;;;;;;;5073730;28;20048;-78
2023/03/28 10:31:02;;;;;;;4.07;1.58;;;;;;;;;;5072952;28;20380;-78
2023/03/28 10:33:34;;;;;;;3.28;1.58;;;;;;;;;;5073513;28;20024;-78
2023/03/28 10:36:03;;;;;;;1.20;1.10;;;;;;;;;;5073220;28;20020;-78
2023/03/28 10:38:46;;;;;;;1.65;1.15;;;;;;;;;;5073249;28;20487;-79
2023/03/28 10:41:20;;;;;;;2.00;0.98;;;;;;;;;;5073244;28;20499;-78
2023/03/28 10:43:45;;;;;;;3.95;1.40;;;;;;;;;;5074481;28;20037;-77
2023/03/28 10:46:29;;;;;;;2.13;1.23;;;;;;;;;;5056568;28;20033;-78
2023/03/28 10:49:04;;;;;;;2.35;1.23;;;;;;;;;;5073296;28;20486;-78
2023/03/28 10:51:31;;;;;;;3.28;1.30;;;;;;;;;;5073093;28;20051;-79
2023/03/28 10:54:15;;;;;;;2.97;1.15;;;;;;;;;;5073234;28;20027;-78
2023/03/28 10:56:53;;;;;;;4.38;1.20;;;;;;;;;;5073108;28;20036;-78
2023/03/28 10:59:52;;;;;;;2.40;1.00;;;;;;;;;;5073126;28;20047;-78
2023/03/28 11:02:42;;;;;;;7.50;1.27;;;;;;;;;;5074307;28;20040;-78
2023/03/28 11:05:24;;;;;;;3.72;1.10;;;;;;;;;;5074176;28;20090;-78
2023/03/28 11:07:58;;;;;;;2.00;0.85;;;;;;;;;;5056425;28;20028;-78
2023/03/28 11:10:44;;;;;;;2.42;1.23;;;;;;;;;;5073031;28;20058;-78
2023/03/28 11:13:31;;;;;;;1.90;1.20;;;;;;;;;;5073318;28;20035;-78
2023/03/28 11:16:14;;;;;;;2.10;1.10;;;;;;;;;;5072826;28;20029;-78
2023/03/28 11:19:04;;;;;;;1.77;1.00;;;;;;;;;;5074299;28;20074;-78
2023/03/28 11:21:55;;;;;;;2.28;1.20;;;;;;;;;;5038008;28;20035;-78
2023/03/28 11:24:39;;;;;;;4.97;1.35;;;;;;;;;;5067793;28;20086;-78
2023/03/28 11:27:08;;;;;;;2.38;1.10;;;;;;;;;;5074678;28;20030;-78
2023/03/28 11:29:52;;;;;;;3.78;1.10;;;;;;;;;;5074092;28;20032;-78
2023/03/28 11:32:25;;;;;;;1.77;1.08;;;;;;;;;;5074588;28;20163;-78
2023/03/28 11:35:13;;;;;;;2.88;0.80;;;;;;;;;;5075522;28;20031;-78
2023/03/28 11:37:43;;;;;;;1.35;0.90;;;;;;;;;;5074835;28;20029;-77
2023/03/28 11:40:20;;;;;;;1.73;1.10;;;;;;;;;;5075043;28;20024;-78
2023/03/28 11:43:05;;;;;;;1.63;0.95;;;;;;;;;;5074110;28;20045;-78
2023/03/28 11:45:45;;;;;;;3.05;1.00;;;;;;;;;;5073589;28;20384;-78
2023/03/28 11:48:22;;;;;;;12.32;1.33;;;;;;;;;;5072743;28;20024;-78
2023/03/28 11:50:58;;;;;;;1.20;1.00;;;;;;;;;;5074988;28;20506;-78
2023/03/28 11:53:25;;;;;;;1.83;1.17;;;;;;;;;;5073145;28;20039;-78
2023/03/28 11:55:58;;;;;;;4.80;1.50;;;;;;;;;;5074427;28;20024;-79
2023/03/28 11:58:26;;;;;;;2.83;1.08;;;;;;;;;;5072675;28;20074;-78
2023/03/28 12:01:07;;;;;;;6.90;1.52;;;;;;;;;;5055746;28;20494;-79
2023/03/28 12:03:57;;;;;;;2.42;1.38;;;;;;;;;;5055731;28;20391;-79
2023/03/28 12:06:42;;;;;;;1.35;1.00;;;;;;;;;;5072004;28;20028;-79
2023/03/28 12:09:23;;;;;;;1.75;0.98;;;;;;;;;;5055864;28;20432;-78
2023/03/28 12:12:00;;;;;;;3.55;1.25;;;;;;;;;;5073429;28;20064;-79
2023/03/28 12:14:29;;;;;;;2.33;1.05;;;;;;;;;;5071798;28;20077;-79
2023/03/28 12:16:55;;;;;;;4.85;2.08;;;;;;;;;;5071805;28;20020;-77
2023/03/28 12:19:30;;;;;;;2.65;1.13;;;;;;;;;;5071611;28;20115;-78
2023/03/28 12:22:00;;;;;;;1.33;0.90;;;;;;;;;;5071503;28;20472;-77
2023/03/28 12:24:39;;;;;;;2.40;0.98;;;;;;;;;;5071842;28;20028;-77
2023/03/28 12:27:26;;;;;;;4.00;1.17;;;;;;;;;;5073636;28;20020;-78
2023/03/28 12:29:59;;;;;;;2.78;1.48;;;;;;;;;;5073006;28;20073;-78
2023/03/28 12:32:31;;;;;;;2.05;1.05;;;;;;;;;;5071518;28;20032;-77
2023/03/28 12:35:17;;;;;;;6.60;1.30;;;;;;;;;;5072806;28;20021;-78
2023/03/28 12:38:08;;;;;;;3.58;1.00;;;;;;;;;;5070673;28;20395;-77
2023/03/28 12:40:53;;;;;;;1.95;1.20;;;;;;;;;;5054819;28;20086;-77
2023/03/28 12:43:23;;;;;;;1.73;1.25;;;;;;;;;;5054731;28;20154;-77
2023/03/28 12:45:53;;;;;;;1.55;1.00;;;;;;;;;;5071673;28;20360;-77
2023/03/28 12:48:27;;;;;;;2.65;0.98;;;;;;;;;;5072761;28;20510;-77
2023/03/28 12:51:16;;;;;;;2.80;1.25;;;;;;;;;;5072101;28;20028;-77
2023/03/28 12:53:56;;;;;;;2.42;1.15;;;;;;;;;;5070292;28;20036;-78
2023/03/28 12:56:22;;;;;;;4.32;1.25;;;;;;;;;;5067444;28;20348;-78
2023/03/28 12:58:51;;;;;;;2.83;1.08;;;;;;;;;;5042015;28;20035;-77
2023/03/28 13:01:32;;;;;;;1.77;0.90;;;;;;;;;;5077895;28;20040;-77
2023/03/28 13:04:00;;;;;;;2.47;1.20;;;;;;;;;;5076484;28;20037;-77
2023/03/28 13:06:37;;;;;;;1.92;1.23;;;;;;;;;;5076527;28;20020;-77
2023/03/28 13:09:34;;;;;;;3.78;1.33;;;;;;;;;;5074946;28;20364;-78
2023/03/28 13:12:33;;;;;;;2.42;1.00;;;;;;;;;;5075028;28;20116;-78
2023/03/28 13:15:27;;;;;;;2.70;1.17;;;;;;;;;;5076090;28;20032;-77
2023/03/28 13:18:20;;;;;;;3.22;1.25;;;;;;;;;;5075012;28;20028;-78
2023/03/28 13:20:47;;;;;;;2.05;1.25;;;;;;;;;;5076145;28;20012;-77
2023/03/28 13:23:14;;;;;;;3.08;1.17;;;;;;;;;;5074869;28;20028;-77
2023/03/28 13:25:41;;;;;;;1.70;1.00;;;;;;;;;;5074579;28;20047;-77
2023/03/28 13:28:10;;;;;;;2.10;1.10;;;;;;;;;;5057896;28;20028;-78
2023/03/28 13:30:35;;;;;;;1.83;1.20;;;;;;;;;;5075881;28;20437;-78
2023/03/28 13:33:22;;;;;;;1.35;1.20;;;;;;;;;;5057778;28;20032;-78
2023/03/28 13:36:07;;;;;;;3.75;1.20;;;;;;;;;;5075753;28;20493;-79
2023/03/28 13:38:49;;;;;;;2.08;1.10;;;;;;;;;;5075705;28;20025;-78
2023/03/28 13:41:41;;;;;;;0.77;0.77;;;;;;;;;;5074479;28;20036;-79
2023/03/28 13:44:13;;;;;;;1.48;1.13;;;;;;;;;;5051297;28;20178;-78
2023/03/28 13:46:42;;;;;;;4.70;1.40;;;;;;;;;;5074331;28;20036;-79
2023/03/28 13:49:42;;;;;;;2.38;1.10;;;;;;;;;;5074142;28;20370;-79
2023/03/28 13:52:14;;;;;;;1.23;0.77;;;;;;;;;;5061883;28;20487;-79
2023/03/28 13:54:40;;;;;;;3.42;1.23;;;;;;;;;;5073974;28;20475;-80
2023/03/28 13:57:11;;;;;;;1.05;0.90;;;;;;;;;;5074006;28;20064;-79
2023/03/28 13:59:38;;;;;;;4.20;0.98;;;;;;;;;;5057487;28;20390;-79
2023/03/28 14:02:37;;;;;;;2.90;0.98;;;;;;;;;;5075328;28;20029;-80
2023/03/28 14:05:18;;;;;;;1.60;0.88;;;;;;;;;;5030434;28;20397;-79
2023/03/28 14:07:43;;;;;;;3.63;1.23;;;;;;;;;;5075139;28;20078;-79
2023/03/28 14:10:39;;;;;;;3.70;1.00;;;;;;;;;;5056271;28;20033;-80
2023/03/28 14:13:07;;;;;;;2.05;1.10;;;;;;;;;;5062210;28;20044;-79
2023/03/28 14:15:38;;;;;;;1.30;0.88;;;;;;;;;;5073843;28;20085;-79
2023/03/28 14:18:04;;;;;;;2.47;1.10;;;;;;;;;;5057176;28;20029;-80
2023/03/28 14:20:32;;;;;;;2.97;0.93;;;;;;;;;;5057037;28;20078;-79
2023/03/28 14:22:58;;;;;;;2.88;1.00;;;;;;;;;;5073738;28;20442;-77
2023/03/28 14:25:24;;;;;;;2.00;1.20;;;;;;;;;;5074680;28;20475;-79
2023/03/28 14:27:51;;;;;;;3.17;1.17;;;;;;;;;;5074634;28;20032;-80
2023/03/28 14:30:28;;;;;;;1.83;0.80;;;;;;;;;;5073356;28;20044;-81
2023/03/28 14:33:06;;;;;;;3.53;1.35;;;;;;;;;;5073436;28;20024;-79
2023/03/28 14:35:34;;;;;;;2.72;1.02;;;;;;;;;;5057113;28;20074;-79
2023/03/28 14:38:45;;;;;;;1.73;0.90;;;;;;;;;;5073213;28;20043;-80
2023/03/28 14:41:28;;;;;;;1.88;1.00;;;;;;;;;;5073286;28;20479;-79
2023/03/28 14:43:54;;;;;;;6.00;1.30;;;;;;;;;;5057682;28;20131;-79
2023/03/28 14:46:27;;;;;;;3.10;1.25;;;;;;;;;;5073143;28;20024;-79
2023/03/28 14:49:00;;;;;;;1.52;1.10;;;;;;;;;;5073264;28;20450;-79
2023/03/28 14:51:26;;;;;;;1.15;1.00;;;;;;;;;;5072960;28;20100;-79
2023/03/28 14:53:52;;;;;;;5.55;1.23;;;;;;;;;;5073085;28;20028;-79
2023/03/28 14:56:23;;;;;;;2.17;1.10;;;;;;;;;;5072802;28;20484;-79
2023/03/28 14:58:57;;;;;;;1.73;0.90;;;;;;;;;;5073293;28;20031;-79
2023/03/28 15:01:23;;;;;;;1.83;0.98;;;;;;;;;;5072939;28;20493;-78
2023/03/28 15:03:52;;;;;;;3.78;1.65;;;;;;;;;;5072891;28;20032;-79
2023/03/28 15:06:19;;;;;;;2.88;1.15;;;;;;;;;;5072861;28;20020;-79
2023/03/28 15:08:45;;;;;;;3.70;1.30;;;;;;;;;;5055930;28;20074;-79
2023/03/28 15:11:28;;;;;;;3.30;1.27;;;;;;;;;;5072514;28;20036;-78